Time;durP1;ratioP1;P1;durP2;ratioP2;P2;SDS_P1;SDS_P2;PMS_P1;PMS_P2;Temp;Humidity;BMP_temperature;BMP_pressure;BME280_temperature;BME280_humidity;BME280_pressure;Samples;Min_cycle;Max_cycle;Signal;HPM_P1;HPM_P2
2021/11/10 00:01:26;;;;;;;33.15;17.48;;;4.20;99.90;;;;;;5014714;28;20144;-61
2021/11/10 00:03:51;;;;;;;39.85;16.98;;;4.20;99.90;;;;;;5010434;28;20044;-62
2021/11/10 00:06:18;;;;;;;34.53;17.15;;;4.30;99.90;;;;;;5005508;28;20087;-62
2021/11/10 00:08:43;;;;;;;41.85;19.38;;;4.20;99.90;;;;;;5000453;28;20561;-62
2021/11/10 00:11:09;;;;;;;36.22;16.88;;;4.20;99.90;;;;;;5002551;28;20030;-62
2021/11/10 00:13:34;;;;;;;33.05;16.65;;;4.20;99.90;;;;;;5008028;28;20080;-62
2021/11/10 00:16:00;;;;;;;36.30;15.82;;;4.10;99.90;;;;;;5013778;28;20782;-65
2021/11/10 00:18:25;;;;;;;34.97;17.27;;;4.10;99.90;;;;;;5016977;28;20038;-62
2021/11/10 00:20:51;;;;;;;31.70;16.75;;;4.20;99.90;;;;;;5014889;28;20049;-62
2021/11/10 00:23:17;;;;;;;29.30;15.23;;;4.10;99.90;;;;;;5008265;28;20034;-62
2021/11/10 00:25:42;;;;;;;32.10;16.83;;;4.10;99.90;;;;;;5001874;28;20771;-62
2021/11/10 00:28:07;;;;;;;34.97;17.40;;;4.10;99.90;;;;;;4999384;28;20030;-62
2021/11/10 00:30:33;;;;;;;33.90;17.30;;;4.00;99.90;;;;;;5004367;28;20405;-62
2021/11/10 00:32:58;;;;;;;36.25;17.02;;;4.00;99.90;;;;;;5003831;28;20033;-62
2021/11/10 00:35:24;;;;;;;38.88;18.65;;;4.00;99.90;;;;;;5000242;28;20045;-62
2021/11/10 00:37:49;;;;;;;36.75;17.65;;;3.90;99.90;;;;;;5067825;28;20030;-62
2021/11/10 00:40:16;;;;;;;35.22;18.42;;;4.00;99.90;;;;;;5072369;28;20049;-61
2021/11/10 00:42:42;;;;;;;38.35;18.90;;;4.00;99.90;;;;;;5077829;28;20778;-62
2021/11/10 00:45:07;;;;;;;42.00;19.13;;;4.00;99.90;;;;;;5015381;28;20067;-62
2021/11/10 00:47:33;;;;;;;37.90;18.58;;;4.00;99.90;;;;;;5012790;28;20029;-62
2021/11/10 00:49:58;;;;;;;42.40;19.38;;;4.00;99.90;;;;;;5009428;28;20034;-62
2021/11/10 00:52:24;;;;;;;38.17;19.17;;;4.00;99.90;;;;;;5071222;28;20037;-62
2021/11/10 00:54:50;;;;;;;36.58;17.52;;;3.90;99.90;;;;;;4997853;28;20120;-62
2021/11/10 00:57:16;;;;;;;39.10;17.95;;;3.80;99.90;;;;;;5000890;28;20790;-62
2021/11/10 00:59:42;;;;;;;37.05;17.30;;;3.80;99.90;;;;;;5076183;28;20044;-63
2021/11/10 01:02:07;;;;;;;38.00;18.20;;;3.70;99.90;;;;;;5079707;28;20833;-62
2021/11/10 01:04:33;;;;;;;38.03;18.52;;;3.70;99.90;;;;;;5005019;28;20040;-62
2021/11/10 01:06:58;;;;;;;35.38;18.40;;;3.70;99.90;;;;;;5008789;28;20504;-62
2021/11/10 01:09:24;;;;;;;46.50;19.85;;;3.70;99.90;;;;;;5004956;28;20034;-62
2021/11/10 01:11:49;;;;;;;34.20;18.80;;;3.70;99.90;;;;;;5067086;28;20679;-62
2021/11/10 01:14:15;;;;;;;39.55;18.35;;;3.80;99.90;;;;;;5065770;28;20650;-62
2021/11/10 01:16:42;;;;;;;38.70;18.67;;;3.80;99.90;;;;;;5071460;28;20746;-62
2021/11/10 01:19:08;;;;;;;40.03;18.83;;;3.70;99.90;;;;;;5076822;28;20036;-62
2021/11/10 01:21:33;;;;;;;34.25;17.67;;;3.70;99.90;;;;;;5080691;28;20041;-62
2021/11/10 01:23:59;;;;;;;45.05;18.60;;;3.70;99.90;;;;;;5069638;28;20132;-62
2021/11/10 01:26:25;;;;;;;39.85;19.15;;;3.70;99.90;;;;;;5071485;28;20140;-62
2021/11/10 01:28:50;;;;;;;36.50;19.05;;;3.60;99.90;;;;;;5079745;28;20409;-62
2021/11/10 01:31:17;;;;;;;44.17;19.30;;;3.60;99.90;;;;;;5083473;28;20037;-62
2021/11/10 01:33:42;;;;;;;43.67;21.05;;;3.60;99.90;;;;;;5010238;28;20030;-62
2021/11/10 01:36:09;;;;;;;39.88;20.08;;;3.60;99.90;;;;;;5074506;28;20045;-62
2021/11/10 01:38:34;;;;;;;42.30;20.52;;;3.60;99.90;;;;;;5067490;28;20022;-62
2021/11/10 01:41:00;;;;;;;40.38;18.85;;;3.60;99.90;;;;;;5063667;28;20037;-62
2021/11/10 01:43:29;;;;;;;40.92;18.95;;;3.60;99.90;;;;;;5076880;28;20589;-62
2021/11/10 01:45:56;;;;;;;42.22;19.52;;;3.60;99.90;;;;;;5071959;28;20030;-62
2021/11/10 01:48:23;;;;;;;40.40;20.45;;;3.60;99.90;;;;;;5078477;28;20519;-63
2021/11/10 01:50:49;;;;;;;38.83;19.52;;;3.60;99.90;;;;;;5081263;28;20029;-62
2021/11/10 01:53:14;;;;;;;41.55;19.92;;;3.50;99.90;;;;;;5075249;28;20147;-62
2021/11/10 01:55:43;;;;;;;40.28;20.15;;;3.50;99.90;;;;;;5070338;28;20119;-62
2021/11/10 01:58:08;;;;;;;43.05;20.98;;;3.40;99.90;;;;;;5065957;28;20050;-62
2021/11/10 02:00:35;;;;;;;37.10;19.77;;;3.40;99.90;;;;;;5067065;28;20049;-62
2021/11/10 02:03:07;;;;;;;38.92;19.08;;;3.40;99.90;;;;;;5072651;28;20121;-62
2021/11/10 02:05:44;;;;;;;45.58;20.75;;;3.40;99.90;;;;;;5012067;28;20101;-62
2021/11/10 02:08:23;;;;;;;49.03;21.17;;;3.30;99.90;;;;;;5082098;28;20062;-62
2021/11/10 02:10:50;;;;;;;47.22;21.15;;;3.40;99.90;;;;;;5075918;28;20021;-62
2021/11/10 02:13:16;;;;;;;43.88;22.05;;;3.30;99.90;;;;;;5071854;28;20412;-62
2021/11/10 02:15:45;;;;;;;48.38;21.65;;;3.30;99.90;;;;;;5066603;28;20030;-62
2021/11/10 02:18:10;;;;;;;45.70;20.45;;;3.40;99.90;;;;;;5065383;28;20041;-62
2021/11/10 02:20:43;;;;;;;50.33;21.55;;;3.30;99.90;;;;;;5071283;28;20033;-62
2021/11/10 02:23:09;;;;;;;47.75;22.15;;;3.30;99.90;;;;;;5076191;28;20038;-62
2021/11/10 02:25:34;;;;;;;44.55;21.35;;;3.30;99.90;;;;;;5013460;28;20118;-62
2021/11/10 02:28:00;;;;;;;49.72;20.98;;;3.30;99.90;;;;;;5011366;28;20038;-62
2021/11/10 02:30:26;;;;;;;48.58;20.83;;;3.30;99.90;;;;;;5075568;28;20026;-62
2021/11/10 02:32:52;;;;;;;42.70;19.60;;;3.20;99.90;;;;;;5076815;28;20051;-62
2021/11/10 02:35:18;;;;;;;43.03;19.75;;;3.20;99.90;;;;;;5080560;28;20030;-62
2021/11/10 02:37:43;;;;;;;43.22;20.60;;;3.10;99.90;;;;;;5078261;28;20034;-62
2021/11/10 02:40:08;;;;;;;39.92;20.17;;;3.10;99.90;;;;;;5073178;28;20037;-62
2021/11/10 02:42:34;;;;;;;51.50;21.67;;;3.10;99.90;;;;;;5068308;28;20042;-62
2021/11/10 02:45:00;;;;;;;45.13;20.85;;;3.40;99.90;;;;;;4996963;28;20089;-62
2021/11/10 02:47:25;;;;;;;41.88;21.40;;;3.10;99.90;;;;;;5000968;28;20811;-62
2021/11/10 02:49:51;;;;;;;40.90;21.52;;;3.10;99.90;;;;;;5074823;28;20037;-62
2021/11/10 02:52:17;;;;;;;46.22;20.52;;;3.00;99.90;;;;;;5012669;28;20060;-62
2021/11/10 02:54:42;;;;;;;49.20;22.33;;;3.00;99.90;;;;;;5063095;28;20038;-62
2021/11/10 02:57:08;;;;;;;49.25;21.13;;;3.00;99.90;;;;;;5010221;28;20712;-62
2021/11/10 02:59:34;;;;;;;43.08;21.60;;;3.00;99.90;;;;;;5014309;28;20666;-62
2021/11/10 03:01:59;;;;;;;45.70;20.60;;;2.90;99.90;;;;;;5084747;28;20037;-62
2021/11/10 03:04:25;;;;;;;49.65;22.30;;;2.90;99.90;;;;;;5084346;28;20034;-62
2021/11/10 03:06:52;;;;;;;45.15;20.30;;;2.90;99.90;;;;;;5076793;28;20064;-63
2021/11/10 03:09:18;;;;;;;43.25;20.95;;;2.90;99.90;;;;;;5073552;28;20125;-62
2021/11/10 03:11:44;;;;;;;42.65;18.75;;;2.90;99.90;;;;;;5050975;28;20033;-62
2021/11/10 03:14:10;;;;;;;39.08;19.40;;;2.80;99.90;;;;;;5062488;28;20030;-62
2021/11/10 03:16:35;;;;;;;41.35;18.42;;;2.70;99.90;;;;;;5076738;28;20133;-63
2021/11/10 03:19:01;;;;;;;42.30;18.77;;;2.60;99.90;;;;;;5081855;28;20029;-62
2021/11/10 03:21:28;;;;;;;45.38;19.65;;;2.60;99.90;;;;;;5087314;28;20099;-62
2021/11/10 03:23:53;;;;;;;43.28;20.10;;;2.60;99.90;;;;;;5080680;28;20080;-62
2021/11/10 03:26:21;;;;;;;42.05;19.85;;;2.60;99.90;;;;;;5075628;28;20037;-62
2021/11/10 03:28:47;;;;;;;46.22;21.00;;;2.60;99.90;;;;;;5070447;28;20022;-62
2021/11/10 03:31:13;;;;;;;45.88;20.88;;;2.70;99.90;;;;;;5076421;28;20402;-62
2021/11/10 03:33:39;;;;;;;44.90;21.48;;;2.70;99.90;;;;;;5079455;28;20026;-62
2021/11/10 03:36:05;;;;;;;48.38;22.42;;;2.70;99.90;;;;;;5073975;28;20033;-62
2021/11/10 03:38:31;;;;;;;55.10;23.65;;;2.60;99.90;;;;;;5069018;28;20128;-63
2021/11/10 03:40:57;;;;;;;47.50;21.42;;;2.70;99.90;;;;;;5069703;28;20029;-62
2021/11/10 03:43:30;;;;;;;43.08;20.25;;;2.60;99.90;;;;;;5074006;28;20163;-62
2021/11/10 03:45:59;;;;;;;55.75;23.02;;;2.60;99.90;;;;;;5081482;28;20026;-62
2021/11/10 03:48:25;;;;;;;45.55;20.98;;;2.60;99.90;;;;;;5086474;28;20061;-62
2021/11/10 03:50:51;;;;;;;47.47;22.08;;;2.60;99.90;;;;;;5014753;28;20490;-62
2021/11/10 03:53:18;;;;;;;49.40;21.55;;;2.60;99.90;;;;;;5075356;28;20026;-62
2021/11/10 03:55:43;;;;;;;50.70;22.13;;;2.60;99.90;;;;;;5004438;28;20029;-62
2021/11/10 03:58:09;;;;;;;44.97;20.88;;;2.50;99.90;;;;;;5001077;28;20038;-62
2021/11/10 04:00:35;;;;;;;50.30;21.50;;;2.50;99.90;;;;;;5081756;28;20029;-62
2021/11/10 04:03:01;;;;;;;42.30;20.92;;;2.50;99.90;;;;;;5075580;28;20026;-62
2021/11/10 04:05:32;;;;;;;45.08;21.10;;;2.50;99.90;;;;;;5101105;27;20040;-62
2021/11/10 04:07:57;;;;;;;48.17;22.13;;;2.70;99.90;;;;;;5083872;28;20029;-62
2021/11/10 04:10:23;;;;;;;49.08;20.88;;;2.30;99.90;;;;;;5080539;28;20377;-62
2021/11/10 04:12:49;;;;;;;42.38;20.05;;;2.40;99.90;;;;;;5081615;28;20462;-62
2021/11/10 04:15:17;;;;;;;49.33;20.85;;;2.40;99.90;;;;;;5086028;28;20124;-62
2021/11/10 04:17:42;;;;;;;46.42;19.77;;;2.10;99.90;;;;;;5015728;28;20063;-62
2021/11/10 04:20:08;;;;;;;52.65;21.55;;;2.30;99.90;;;;;;5077802;28;20461;-62
2021/11/10 04:22:34;;;;;;;42.15;20.45;;;2.20;99.90;;;;;;5073528;28;20382;-62
2021/11/10 04:25:01;;;;;;;48.58;22.00;;;2.50;99.90;;;;;;5068337;28;20026;-62
2021/11/10 04:27:27;;;;;;;54.65;23.85;;;2.40;99.90;;;;;;5070963;28;20257;-63
2021/11/10 04:29:53;;;;;;;49.90;23.08;;;3.00;99.90;;;;;;5075831;28;20033;-62
2021/11/10 04:32:18;;;;;;;52.70;22.85;;;2.40;99.90;;;;;;5080748;28;20029;-63
2021/11/10 04:34:44;;;;;;;48.97;22.63;;;2.40;99.90;;;;;;5009003;28;20029;-62
2021/11/10 04:37:14;;;;;;;48.30;22.80;;;2.40;99.90;;;;;;5062069;28;20033;-62
2021/11/10 04:39:40;;;;;;;52.53;22.95;;;2.40;99.90;;;;;;5074431;28;20509;-62
2021/11/10 04:42:06;;;;;;;57.10;23.33;;;2.40;99.90;;;;;;5069892;28;20038;-63
2021/11/10 04:44:32;;;;;;;48.20;21.95;;;2.40;99.90;;;;;;5066290;28;20048;-63
2021/11/10 04:46:58;;;;;;;50.33;22.75;;;2.40;99.90;;;;;;5071933;28;20025;-62
2021/11/10 04:49:24;;;;;;;53.85;23.23;;;1.30;99.90;;;;;;5078239;28;20067;-62
2021/11/10 04:51:50;;;;;;;49.17;23.80;;;2.40;99.90;;;;;;5081927;28;20047;-63
2021/11/10 04:54:19;;;;;;;55.47;23.70;;;2.40;99.90;;;;;;5013031;28;20037;-63
2021/11/10 04:56:44;;;;;;;52.05;23.42;;;2.40;99.90;;;;;;5003028;28;20042;-63
2021/11/10 04:59:10;;;;;;;55.42;23.45;;;2.40;99.90;;;;;;5078742;28;20025;-63
2021/11/10 05:01:42;;;;;;;59.22;23.55;;;2.30;99.90;;;;;;5085001;28;20029;-63
2021/11/10 05:04:09;;;;;;;48.67;24.15;;;2.30;99.90;;;;;;5080825;28;20022;-63
2021/11/10 05:06:36;;;;;;;54.20;23.67;;;2.30;99.90;;;;;;5074510;28;20850;-63
2021/11/10 05:09:02;;;;;;;49.80;24.17;;;2.30;99.90;;;;;;5067960;28;20040;-63
2021/11/10 05:11:29;;;;;;;48.17;22.90;;;2.30;99.90;;;;;;5064986;28;20029;-63
2021/11/10 05:13:54;;;;;;;54.83;23.77;;;2.30;99.90;;;;;;5076589;28;20029;-63
2021/11/10 05:16:20;;;;;;;54.50;24.20;;;2.30;99.90;;;;;;5072387;28;20143;-63
2021/11/10 05:18:47;;;;;;;50.42;22.13;;;2.30;99.90;;;;;;5069839;28;20409;-63
2021/11/10 05:21:16;;;;;;;49.30;23.17;;;2.30;99.90;;;;;;5073012;28;20112;-63
2021/11/10 05:23:42;;;;;;;55.10;25.10;;;2.30;99.90;;;;;;5077223;28;20041;-63
2021/11/10 05:26:07;;;;;;;56.42;24.77;;;2.30;99.90;;;;;;5012744;28;20025;-67
2021/11/10 05:28:33;;;;;;;50.08;22.52;;;2.30;99.90;;;;;;5005557;28;20041;-63
2021/11/10 05:30:58;;;;;;;49.33;22.45;;;2.30;99.90;;;;;;5004753;28;20100;-63
2021/11/10 05:33:24;;;;;;;55.08;24.70;;;2.30;99.90;;;;;;5006335;28;20055;-63
2021/11/10 05:35:49;;;;;;;50.17;23.02;;;2.30;99.90;;;;;;5012596;28;20038;-63
2021/11/10 05:38:15;;;;;;;48.13;22.73;;;2.30;99.90;;;;;;5014534;28;20431;-63
2021/11/10 05:40:40;;;;;;;45.22;23.00;;;2.20;99.90;;;;;;5013291;28;20033;-63
2021/11/10 05:43:06;;;;;;;54.05;22.88;;;2.20;99.90;;;;;;5011263;28;20699;-63
2021/11/10 05:45:31;;;;;;;58.85;23.23;;;2.20;99.90;;;;;;5006807;28;20493;-63
2021/11/10 05:47:57;;;;;;;55.15;22.88;;;2.20;99.90;;;;;;5001949;28;20072;-62
2021/11/10 05:50:22;;;;;;;51.78;22.05;;;2.10;99.90;;;;;;5011342;28;20037;-63
2021/11/10 05:52:48;;;;;;;53.53;22.67;;;2.10;99.90;;;;;;5006681;28;20104;-62
2021/11/10 05:55:15;;;;;;;52.30;22.88;;;2.00;99.90;;;;;;5005421;28;20405;-63
2021/11/10 05:57:42;;;;;;;48.78;21.30;;;3.00;99.90;;;;;;5005305;28;20045;-63
2021/11/10 06:00:08;;;;;;;51.42;22.20;;;2.00;99.90;;;;;;5006286;28;20086;-63
2021/11/10 06:02:39;;;;;;;49.70;22.55;;;2.00;99.90;;;;;;5003008;28;20123;-63
2021/11/10 06:05:04;;;;;;;47.28;22.45;;;2.00;99.90;;;;;;5005028;28;20022;-63
2021/11/10 06:07:30;;;;;;;47.85;23.55;;;1.90;99.90;;;;;;4998353;28;20029;-62
2021/11/10 06:09:55;;;;;;;56.80;22.08;;;2.00;99.90;;;;;;5003170;28;20438;-63
2021/11/10 06:12:21;;;;;;;54.97;24.02;;;1.90;99.90;;;;;;5004908;28;20889;-63
2021/11/10 06:14:46;;;;;;;53.22;22.17;;;1.90;99.90;;;;;;4997158;28;20034;-63
2021/11/10 06:17:11;;;;;;;52.72;23.08;;;1.90;99.90;;;;;;5006892;28;20083;-63
2021/11/10 06:19:37;;;;;;;50.70;23.38;;;1.80;99.90;;;;;;5006550;28;20079;-70
2021/11/10 06:22:02;;;;;;;54.20;23.70;;;1.90;99.90;;;;;;5000510;28;20041;-70
2021/11/10 06:24:28;;;;;;;52.75;23.10;;;1.90;99.90;;;;;;5005582;28;20037;-70
2021/11/10 06:26:53;;;;;;;55.03;23.58;;;1.90;99.90;;;;;;5076646;28;20038;-70
2021/11/10 06:29:21;;;;;;;57.42;23.92;;;1.80;99.90;;;;;;5076719;28;20038;-70
2021/11/10 06:31:46;;;;;;;53.90;23.25;;;1.90;99.90;;;;;;5009349;28;20037;-70
2021/11/10 06:34:12;;;;;;;49.63;22.50;;;1.90;99.90;;;;;;5011357;28;20041;-70
2021/11/10 06:36:37;;;;;;;46.83;22.45;;;1.90;99.90;;;;;;5010136;28;20041;-70
2021/11/10 06:39:02;;;;;;;53.25;23.60;;;1.90;99.90;;;;;;5012150;28;20037;-70
2021/11/10 06:41:28;;;;;;;55.22;24.05;;;2.00;99.90;;;;;;5003154;28;20490;-70
2021/11/10 06:43:54;;;;;;;52.63;24.63;;;1.90;99.90;;;;;;5007676;28;20042;-70
2021/11/10 06:46:19;;;;;;;52.03;23.73;;;1.90;99.90;;;;;;5006636;28;20037;-70
2021/11/10 06:48:45;;;;;;;56.90;24.13;;;2.00;99.90;;;;;;5008518;28;20730;-70
2021/11/10 06:51:14;;;;;;;50.85;24.08;;;2.00;99.90;;;;;;5010388;28;20053;-70
2021/11/10 06:53:40;;;;;;;51.47;23.13;;;2.00;99.90;;;;;;5012360;28;20033;-70
2021/11/10 06:56:05;;;;;;;53.08;23.52;;;2.00;99.90;;;;;;5006680;28;20983;-70
2021/11/10 06:58:30;;;;;;;61.55;24.95;;;2.10;99.90;;;;;;5012235;28;20033;-70
2021/11/10 07:00:56;;;;;;;54.95;25.13;;;2.10;99.90;;;;;;4996965;28;20444;-70
2021/11/10 07:03:21;;;;;;;58.88;25.20;;;2.20;99.90;;;;;;5006187;28;20042;-70
2021/11/10 07:05:47;;;;;;;60.35;26.58;;;2.20;99.90;;;;;;5005791;28;20045;-70
2021/11/10 07:08:12;;;;;;;64.82;27.08;;;2.30;99.90;;;;;;5008336;28;20081;-70
2021/11/10 07:10:38;;;;;;;62.65;26.65;;;2.40;99.90;;;;;;5000461;28;20037;-70
2021/11/10 07:13:03;;;;;;;66.75;28.50;;;2.50;99.90;;;;;;5006653;28;20196;-70
2021/11/10 07:15:29;;;;;;;65.53;27.40;;;2.50;99.90;;;;;;5009243;28;20033;-70
2021/11/10 07:17:54;;;;;;;54.58;24.45;;;2.60;99.90;;;;;;5013057;28;20461;-70
2021/11/10 07:20:20;;;;;;;64.47;27.05;;;2.70;99.90;;;;;;5015382;28;20167;-70
2021/11/10 07:22:45;;;;;;;58.22;26.35;;;2.80;99.90;;;;;;5012903;28;20090;-70
2021/11/10 07:25:11;;;;;;;59.72;28.48;;;2.80;99.90;;;;;;5004113;28;20037;-70
2021/11/10 07:27:36;;;;;;;54.55;26.55;;;2.90;99.90;;;;;;4997568;28;20045;-70
2021/11/10 07:30:02;;;;;;;52.80;24.90;;;3.10;99.90;;;;;;5006005;28;20148;-70
2021/11/10 07:32:27;;;;;;;47.13;23.85;;;3.20;99.90;;;;;;5075324;28;20117;-70
2021/11/10 07:34:53;;;;;;;43.15;20.90;;;3.30;99.90;;;;;;5002286;28;20530;-70
2021/11/10 07:37:18;;;;;;;38.63;19.55;;;3.30;99.90;;;;;;5013430;28;20033;-70
2021/11/10 07:39:45;;;;;;;35.80;18.13;;;3.20;99.90;;;;;;5007125;28;20037;-70
2021/11/10 07:42:10;;;;;;;37.00;17.73;;;3.20;99.90;;;;;;5009293;28;20029;-69
2021/11/10 07:44:37;;;;;;;32.83;17.17;;;3.20;99.90;;;;;;5012902;28;20038;-69
2021/11/10 07:47:16;;;;;;;26.55;16.08;;;3.20;99.90;;;;;;5082623;28;20033;-69
2021/11/10 07:49:41;;;;;;;32.22;15.88;;;3.20;99.90;;;;;;5012252;28;20409;-68
2021/11/10 07:52:07;;;;;;;32.63;17.13;;;3.20;99.90;;;;;;5008494;28;20037;-68
2021/11/10 07:54:32;;;;;;;30.80;17.25;;;3.30;99.90;;;;;;5006890;28;20607;-68
2021/11/10 07:56:58;;;;;;;28.88;15.85;;;3.50;99.90;;;;;;5006780;28;20117;-68
2021/11/10 07:59:23;;;;;;;33.08;17.13;;;3.60;99.90;;;;;;5006889;28;20037;-69
2021/11/10 08:01:49;;;;;;;34.50;17.30;;;3.80;99.90;;;;;;5076110;28;20057;-66
2021/11/10 08:04:14;;;;;;;32.78;16.90;;;4.00;99.90;;;;;;5015271;28;20067;-66
2021/11/10 08:06:40;;;;;;;29.05;15.95;;;4.10;99.90;;;;;;5009674;28;20063;-66
2021/11/10 08:09:05;;;;;;;31.88;16.60;;;4.20;99.90;;;;;;5010275;28;20401;-69
2021/11/10 08:11:31;;;;;;;31.25;15.20;;;4.40;99.90;;;;;;5013472;28;20062;-69
2021/11/10 08:13:57;;;;;;;32.65;15.38;;;5.00;99.90;;;;;;5002433;28;20075;-69
2021/11/10 08:16:23;;;;;;;30.58;15.38;;;4.50;99.90;;;;;;5011478;28;20041;-69
2021/11/10 08:18:48;;;;;;;26.95;14.27;;;4.70;99.90;;;;;;5013691;28;20079;-70
2021/11/10 08:21:14;;;;;;;27.52;14.98;;;4.80;99.90;;;;;;5015142;28;20040;-69
2021/11/10 08:23:39;;;;;;;27.70;15.23;;;4.70;99.90;;;;;;5019252;28;20824;-69
2021/11/10 08:26:05;;;;;;;30.17;15.15;;;4.70;99.90;;;;;;5079180;28;20030;-69
2021/11/10 08:28:31;;;;;;;34.63;15.13;;;4.70;99.90;;;;;;5009630;28;20133;-70
2021/11/10 08:30:56;;;;;;;24.77;15.18;;;4.90;99.90;;;;;;5018151;28;20108;-69
2021/11/10 08:33:22;;;;;;;26.52;14.65;;;5.00;99.90;;;;;;5084179;28;20466;-70
2021/11/10 08:35:48;;;;;;;29.15;14.48;;;5.30;99.90;;;;;;5010411;28;20029;-69
2021/11/10 08:38:13;;;;;;;27.35;15.43;;;5.40;99.90;;;;;;5012524;28;20507;-69
2021/11/10 08:40:39;;;;;;;28.60;15.88;;;5.80;99.90;;;;;;5018668;28;20029;-70
2021/11/10 08:43:04;;;;;;;26.45;15.50;;;6.10;99.90;;;;;;5015589;28;20075;-69
2021/11/10 08:45:34;;;;;;;27.60;14.65;;;6.40;99.90;;;;;;5014618;28;20026;-69
2021/11/10 08:48:01;;;;;;;26.45;14.40;;;6.60;99.90;;;;;;5006364;28;20045;-69
2021/11/10 08:50:26;;;;;;;24.77;13.73;;;6.50;99.90;;;;;;5018112;28;20038;-69
2021/11/10 08:52:52;;;;;;;25.45;13.55;;;6.40;99.90;;;;;;5014959;28;20041;-69
2021/11/10 08:55:18;;;;;;;25.85;14.05;;;6.30;99.90;;;;;;5012018;28;20036;-69
2021/11/10 08:57:44;;;;;;;22.45;12.50;;;6.30;99.90;;;;;;5009915;28;20093;-68
2021/11/10 09:00:09;;;;;;;24.05;14.25;;;6.40;99.90;;;;;;5018537;28;20053;-69
2021/11/10 09:02:36;;;;;;;30.40;15.80;;;6.50;99.90;;;;;;5010027;28;20069;-68
2021/11/10 09:05:01;;;;;;;27.13;15.13;;;6.50;99.90;;;;;;5012302;28;20038;-67
2021/11/10 09:07:28;;;;;;;29.40;15.32;;;6.70;99.90;;;;;;5017162;28;20136;-69
2021/11/10 09:09:53;;;;;;;27.42;15.15;;;6.80;99.90;;;;;;5011208;28;20116;-67
2021/11/10 09:12:19;;;;;;;27.92;15.20;;;6.70;99.90;;;;;;5007376;28;20106;-68
2021/11/10 09:14:44;;;;;;;23.15;13.68;;;6.80;99.90;;;;;;5008583;28;20037;-68
2021/11/10 09:17:12;;;;;;;23.15;12.13;;;7.00;99.90;;;;;;5006788;28;20370;-68
2021/11/10 09:19:37;;;;;;;24.45;13.82;;;7.10;99.90;;;;;;5007332;28;20044;-68
2021/11/10 09:22:03;;;;;;;26.25;13.63;;;7.00;99.90;;;;;;5010615;28;20030;-68
2021/11/10 09:24:28;;;;;;;24.67;12.88;;;6.90;99.90;;;;;;5012549;28;20048;-68
2021/11/10 09:26:54;;;;;;;22.05;12.57;;;6.90;99.90;;;;;;5010412;28;20477;-68
2021/11/10 09:29:20;;;;;;;24.27;12.57;;;6.90;99.90;;;;;;5014639;28;20079;-68
2021/11/10 09:31:45;;;;;;;21.30;12.77;;;7.00;99.90;;;;;;5084321;28;20053;-68
2021/11/10 09:34:12;;;;;;;21.55;12.30;;;7.20;99.90;;;;;;5081419;28;20170;-68
2021/11/10 09:36:39;;;;;;;23.15;13.40;;;7.40;99.90;;;;;;5017894;28;20037;-68
2021/11/10 09:39:04;;;;;;;27.77;13.23;;;7.40;99.90;;;;;;5007930;28;20056;-68
2021/11/10 09:41:30;;;;;;;21.50;12.70;;;7.60;99.90;;;;;;5009466;28;20072;-68
2021/11/10 09:43:58;;;;;;;22.13;11.65;;;7.70;99.90;;;;;;5073595;28;20044;-68
2021/11/10 09:46:23;;;;;;;22.20;12.20;;;7.80;99.90;;;;;;5004935;28;20241;-68
2021/11/10 09:48:49;;;;;;;20.55;11.48;;;8.00;99.90;;;;;;5010482;28;20038;-68
2021/11/10 09:51:14;;;;;;;22.08;12.30;;;8.20;99.90;;;;;;5009496;28;20044;-68
2021/11/10 09:53:40;;;;;;;19.88;11.00;;;8.50;99.90;;;;;;5012966;28;20116;-68
2021/11/10 09:56:05;;;;;;;19.38;11.02;;;8.60;99.90;;;;;;5083665;28;20044;-67
2021/11/10 09:58:32;;;;;;;22.02;11.20;;;8.70;99.90;;;;;;5009071;28;20045;-68
2021/11/10 10:00:58;;;;;;;20.50;11.50;;;8.70;99.90;;;;;;5012319;28;20090;-67
2021/11/10 10:03:24;;;;;;;16.85;11.25;;;8.70;99.90;;;;;;5017054;28;20042;-69
2021/11/10 10:05:49;;;;;;;22.20;12.00;;;8.80;99.90;;;;;;5013753;28;20040;-69
2021/11/10 10:08:15;;;;;;;21.15;11.90;;;9.00;99.90;;;;;;5009324;28;20022;-69
2021/11/10 10:10:40;;;;;;;19.40;10.57;;;9.10;99.90;;;;;;5006573;28;20517;-68
2021/11/10 10:13:06;;;;;;;26.58;11.90;;;9.30;99.90;;;;;;5017510;28;20589;-68
2021/11/10 10:15:32;;;;;;;18.17;10.40;;;9.70;99.90;;;;;;5013386;28;20467;-68
2021/11/10 10:17:58;;;;;;;19.20;11.07;;;10.00;99.90;;;;;;5074687;28;20111;-68
2021/11/10 10:20:23;;;;;;;17.92;9.85;;;9.80;99.90;;;;;;5004860;28;20038;-68
2021/11/10 10:22:49;;;;;;;18.85;10.32;;;9.80;99.90;;;;;;5005245;28;20056;-69
2021/11/10 10:25:14;;;;;;;20.85;10.18;;;9.80;99.90;;;;;;5014373;28;20033;-69
2021/11/10 10:27:40;;;;;;;18.38;10.13;;;9.90;99.90;;;;;;5008714;28;20518;-69
2021/11/10 10:30:05;;;;;;;17.00;10.05;;;9.70;99.90;;;;;;5014910;28;20095;-69
2021/11/10 10:32:30;;;;;;;17.55;9.60;;;9.60;99.90;;;;;;5010108;28;20087;-68
2021/11/10 10:34:56;;;;;;;13.93;8.52;;;9.70;99.90;;;;;;5012027;28;20034;-69
2021/11/10 10:37:21;;;;;;;21.00;10.90;;;9.80;99.90;;;;;;5005752;28;20807;-69
2021/11/10 10:39:47;;;;;;;16.50;9.02;;;10.00;99.90;;;;;;5014913;28;20115;-69
2021/11/10 10:42:13;;;;;;;15.70;9.05;;;10.40;99.90;;;;;;5010757;28;20512;-69
2021/11/10 10:44:38;;;;;;;16.65;8.35;;;10.70;99.90;;;;;;5074417;28;20526;-70
2021/11/10 10:47:04;;;;;;;17.13;9.00;;;10.80;99.90;;;;;;5014271;28;20454;-69
2021/11/10 10:49:33;;;;;;;14.98;9.07;;;10.70;99.90;;;;;;5013077;28;20866;-68
2021/11/10 10:51:58;;;;;;;17.48;9.48;;;10.60;99.90;;;;;;5004929;28;20045;-70
2021/11/10 10:54:24;;;;;;;14.48;7.80;;;10.70;99.90;;;;;;5006360;28;20034;-68
2021/11/10 10:56:50;;;;;;;12.90;7.97;;;10.70;99.90;;;;;;5012888;28;20145;-74
2021/11/10 10:59:16;;;;;;;13.23;8.25;;;10.60;99.90;;;;;;5071769;28;20109;-69
2021/11/10 11:01:42;;;;;;;16.02;9.15;;;10.60;99.90;;;;;;5003434;28;20038;-68
2021/11/10 11:04:07;;;;;;;18.60;10.10;;;10.50;99.90;;;;;;5006900;28;20533;-66
2021/11/10 11:06:35;;;;;;;20.33;9.27;;;10.50;99.90;;;;;;5003479;28;20363;-68
2021/11/10 11:09:01;;;;;;;15.38;8.88;;;10.60;99.90;;;;;;5070858;28;20030;-67
2021/11/10 11:11:40;;;;;;;12.93;7.93;;;10.60;99.90;;;;;;5008549;28;20030;-68
2021/11/10 11:14:08;;;;;;;12.57;7.93;;;10.70;99.90;;;;;;5011947;28;20117;-68
2021/11/10 11:16:35;;;;;;;16.27;7.93;;;10.70;99.90;;;;;;5011869;28;20056;-67
2021/11/10 11:19:00;;;;;;;12.38;8.10;;;10.60;99.90;;;;;;5016994;28;20033;-67
2021/11/10 11:21:26;;;;;;;12.90;7.03;;;10.60;99.90;;;;;;5061992;28;20033;-69
2021/11/10 11:23:51;;;;;;;16.55;7.72;;;10.90;99.90;;;;;;5008401;28;20045;-67
2021/11/10 11:26:17;;;;;;;14.90;8.45;;;11.00;99.90;;;;;;5010049;28;20106;-69
2021/11/10 11:28:42;;;;;;;13.45;7.30;;;11.30;99.90;;;;;;5014240;28;20040;-70
2021/11/10 11:31:08;;;;;;;14.98;8.25;;;11.30;99.90;;;;;;5016344;28;20699;-67
2021/11/10 11:33:36;;;;;;;13.50;8.18;;;11.50;99.90;;;;;;5016586;28;20034;-67
2021/11/10 11:36:01;;;;;;;11.77;6.93;;;11.40;99.90;;;;;;5016001;28;20045;-68
2021/11/10 11:38:27;;;;;;;13.55;7.47;;;11.30;99.90;;;;;;5007946;28;20042;-67
2021/11/10 11:40:52;;;;;;;17.50;9.18;;;11.20;99.90;;;;;;5019222;28;20033;-67
2021/11/10 11:43:18;;;;;;;14.60;7.55;;;11.10;99.90;;;;;;5006123;28;20477;-68
2021/11/10 11:45:45;;;;;;;13.82;7.75;;;11.20;99.90;;;;;;5003338;28;20105;-68
2021/11/10 11:48:10;;;;;;;16.48;7.68;;;11.30;99.90;;;;;;5009750;28;20045;-68
2021/11/10 11:50:36;;;;;;;14.98;8.45;;;11.10;99.90;;;;;;5075686;28;20087;-68
2021/11/10 11:53:01;;;;;;;17.52;8.38;;;11.10;99.90;;;;;;5014880;28;20029;-68
2021/11/10 11:55:27;;;;;;;16.05;8.32;;;11.40;99.90;;;;;;5015703;28;20082;-68
2021/11/10 11:57:52;;;;;;;13.60;8.18;;;11.50;99.90;;;;;;5074211;28;20046;-68
2021/11/10 12:00:18;;;;;;;12.30;7.28;;;11.90;99.90;;;;;;5006170;28;20033;-68
2021/11/10 12:02:43;;;;;;;17.25;7.85;;;12.20;99.90;;;;;;5003222;28;20807;-68
2021/11/10 12:05:09;;;;;;;15.57;7.97;;;12.10;99.90;;;;;;5015626;28;20076;-68
2021/11/10 12:07:35;;;;;;;17.42;7.60;;;11.90;99.90;;;;;;5078586;28;20048;-68
2021/11/10 12:10:00;;;;;;;15.07;8.30;;;11.60;99.90;;;;;;5016147;28;20030;-69
2021/11/10 12:12:26;;;;;;;14.88;7.82;;;11.70;99.90;;;;;;5002118;28;20030;-67
2021/11/10 12:14:51;;;;;;;16.50;9.25;;;11.80;99.90;;;;;;5009264;28;20402;-66
2021/11/10 12:17:17;;;;;;;16.25;7.95;;;11.80;99.90;;;;;;5011631;28;20034;-66
2021/11/10 12:19:43;;;;;;;23.40;12.10;;;11.40;99.90;;;;;;5077531;28;20037;-67
2021/11/10 12:22:08;;;;;;;13.80;8.40;;;11.40;99.90;;;;;;5015550;28;20489;-68
2021/11/10 12:24:34;;;;;;;16.55;9.02;;;11.60;99.90;;;;;;5013490;28;20123;-68
2021/11/10 12:26:59;;;;;;;17.13;8.65;;;11.60;99.90;;;;;;5076378;28;20041;-68
2021/11/10 12:29:24;;;;;;;17.08;9.15;;;11.50;99.90;;;;;;5079753;28;20657;-68